Duke Field,(Eglin Af Aux Nr 3) Airport
KEGI : now visible

Aeroporto :











RITROVATECI SU...

 
LOGIN :

Iscrizione | Disclaimer

   EN    FR    IT 

 









Sommario :    VFR   VFR Marginale   IFR   IFR Intensivo   IFR Molto Intensivo
Visibilità : 
Base nubi : 
>= 8 km
>= 3000ft
5 / 8 km
1000 / 3000 ft
1500m / 5 km
500 / 1000 ft
800 / 1500m
200 / 500 ft
< 800m
< 200 ft
Simboli :   Temporali  Nebbia  Neve Forte  Precipitazioni Forti  Vento > 20 kt






- Altitudine del aeroporto : 191 ft


KEGI - Duke Field,(Eglin Af Aux Nr 3)

ULTIMO METAR :
  • 040256Z AUTO 00000KT 10SM SCT160 18/11 A2999 RMK AO2 SLP156 T01800111 52009 $

METARs OBSOLETI :
  • 040156Z AUTO 00000KT 10SM FEW130 SCT150 18/10 A2998 RMK AO2 SLP152 T01800099 $
  • 040056Z AUTO 00000KT 10SM CLR 18/09 A2997 RMK AO2 SLP149 T01800091 $

TAF TAF KEGI
Valido dal 04 a 01 ore il 05 a 07 ore UTC


040100Z 0401/0507 24006KT 9999 SCT080 SCT200 QNH2997INS
BECMG 0408/0409 32006KT 9999 SCT080 SCT250 QNH2995INS
BECMG 0417/0418 03009KT 9999 SCT100 BKN250 QNH2991INS
BECMG 0502/0503 23006KT 9999 SCT080 BKN250 QNH2997INS TX26/0419Z TN11/0411Z



MetMap, La meteo Aeronautica in un colpo d'occhio ! - Copyright ORBIFLY Dicembre 2007 - Disclaimer

ORBIFLY MET'MAP TEAM :

Programmazione e sviluppo : Alexandra Zaïnal
Concezione : Baudouin d'Aumeries
Aiuto per la programmazione : Marc-Olivier Méhu
Supporto tecnico e logistico : Manuel Goepfert
Aiuto per la traduzione : Arnaldo La Scala

Contatto : metmap@orbifly.com




FONTI E CREDITI :

   NOAA       Earth
Advisory